Aeroporto :







RITROVATECI SU...

 
LOGIN :

Iscrizione | Disclaimer

   EN    FR    IT 

 









Sommario :    VFR   VFR Marginale   IFR   IFR Intensivo   IFR Molto Intensivo
Visibilità : 
Base nubi : 
>= 8 km
>= 3000ft
5 / 8 km
1000 / 3000 ft
1500m / 5 km
500 / 1000 ft
800 / 1500m
200 / 500 ft
< 800m
< 200 ft
Simboli :   Temporali  Nebbia  Neve Forte  Precipitazioni Forti  Vento > 20 kt






- Altitudine del aeroporto : 36 ft
- Codice IATA : PTP


TFFR - Le Raizet

ULTIMO METAR :
  • 021200Z AUTO 09011KT CAVOK 29/24 Q1016 NOSIG

METARs OBSOLETI :
  • 021130Z AUTO 08009KT CAVOK 27/23 Q1016
  • 021100Z AUTO 09010KT 9999 OVC062 27/23 Q1016
  • 021030Z AUTO 10009KT CAVOK 26/23 Q1016
  • 021000Z AUTO 09007KT CAVOK 26/23 Q1015
  • 020930Z AUTO 07004KT CAVOK 26/23 Q1015

TAF TAF TFFR
Valido dal 02 a 12 ore il 03 a 12 ore UTC


021100Z 0212/0312 12010KT 9999 BKN030
PROB30
TEMPO 0215/0221 12015G25KT
PROB30
TEMPO 0221/0310 3000 SHRA BKN018TCU BKN025
FIR TTZP / America del Nord



MetMap, La meteo Aeronautica in un colpo d'occhio ! - Copyright ORBIFLY Dicembre 2007 - Disclaimer

ORBIFLY MET'MAP TEAM :

Programmazione e sviluppo : Alexandra Zaïnal
Concezione : Baudouin d'Aumeries
Aiuto per la programmazione : Marc-Olivier Méhu
Supporto tecnico e logistico : Manuel Goepfert
Aiuto per la traduzione : Arnaldo La Scala

Contatto : metmap@orbifly.com




FONTI E CREDITI :

   NOAA